createdAt,value
2017-07-01T00:00:57.124Z,0
2017-07-01T00:01:58.422Z,0
2017-07-01T00:02:59.759Z,0
2017-07-01T00:04:01.000Z,0
2017-07-01T00:05:02.255Z,0
2017-07-01T00:06:03.506Z,0
2017-07-01T00:07:04.745Z,0
2017-07-01T00:08:06.134Z,0
2017-07-01T00:09:07.414Z,0
2017-07-01T00:10:08.664Z,0
2017-07-01T00:11:09.913Z,0
2017-07-01T00:12:11.213Z,0
2017-07-01T00:13:12.534Z,0
2017-07-01T00:14:13.851Z,0
2017-07-01T00:15:15.164Z,0
2017-07-01T00:16:16.437Z,0
2017-07-01T00:17:17.674Z,0
2017-07-01T00:18:18.927Z,0
2017-07-01T00:19:20.221Z,0
2017-07-01T00:20:21.478Z,0
2017-07-01T00:21:22.735Z,0
2017-07-01T00:22:24.006Z,0
2017-07-01T00:23:25.250Z,0
2017-07-01T00:24:26.491Z,0
2017-07-01T00:25:27.725Z,0
2017-07-01T00:26:29.001Z,0
2017-07-01T00:27:30.290Z,0
2017-07-01T00:28:31.537Z,0
2017-07-01T00:29:32.776Z,0
2017-07-01T00:30:34.072Z,0
2017-07-01T00:31:35.305Z,0
2017-07-01T00:32:36.565Z,0
2017-07-01T00:33:37.890Z,0
2017-07-01T00:34:39.141Z,0
2017-07-01T00:35:40.422Z,0
2017-07-01T00:36:41.689Z,0
2017-07-01T00:37:42.962Z,0
2017-07-01T00:38:44.278Z,0
2017-07-01T00:39:45.516Z,0
2017-07-01T00:40:46.761Z,0
2017-07-01T00:41:48.024Z,0
2017-07-01T00:42:49.305Z,0
2017-07-01T00:43:50.572Z,0
2017-07-01T00:44:51.844Z,0
2017-07-01T00:45:53.095Z,0
2017-07-01T00:46:54.349Z,0
2017-07-01T00:47:55.734Z,0
2017-07-01T00:48:56.972Z,0
2017-07-01T00:49:58.253Z,0
2017-07-01T00:50:59.543Z,0
2017-07-01T00:52:00.809Z,0
2017-07-01T00:53:02.078Z,0
2017-07-01T00:54:03.349Z,0
2017-07-01T00:55:04.568Z,0
2017-07-01T00:56:05.836Z,0
2017-07-01T00:57:07.223Z,0
2017-07-01T00:58:08.363Z,0
2017-07-01T00:59:09.728Z,0
2017-07-01T01:00:10.986Z,0
2017-07-01T01:01:12.268Z,0
2017-07-01T01:02:13.724Z,0
2017-07-01T01:03:14.966Z,0
2017-07-01T01:04:16.201Z,0
2017-07-01T01:05:17.488Z,0
2017-07-01T01:06:18.755Z,0
2017-07-01T01:07:20.010Z,0
2017-07-01T01:08:21.271Z,0
2017-07-01T01:09:22.542Z,0
2017-07-01T01:10:23.786Z,0
2017-07-01T01:11:25.066Z,0
2017-07-01T01:12:26.309Z,0
2017-07-01T01:13:27.574Z,0
2017-07-01T01:14:28.829Z,0
2017-07-01T01:15:30.226Z,0
2017-07-01T01:16:31.501Z,0
2017-07-01T01:17:32.805Z,0
2017-07-01T01:18:34.036Z,0
2017-07-01T01:19:35.282Z,0
2017-07-01T01:20:36.533Z,0
2017-07-01T01:21:37.794Z,0
2017-07-01T01:22:39.078Z,0
2017-07-01T01:23:40.340Z,0
2017-07-01T01:24:41.647Z,0
2017-07-01T01:25:42.912Z,0
2017-07-01T01:26:44.218Z,0
2017-07-01T01:27:45.510Z,0
2017-07-01T01:28:46.774Z,0
2017-07-01T01:29:48.084Z,0
2017-07-01T01:30:49.374Z,0
2017-07-01T01:31:50.651Z,0
2017-07-01T01:32:51.962Z,0
2017-07-01T01:33:53.279Z,0
2017-07-01T01:34:54.497Z,0
2017-07-01T01:35:55.788Z,0
2017-07-01T01:36:57.057Z,0
2017-07-01T01:37:58.315Z,0
2017-07-01T01:38:59.585Z,0
2017-07-01T01:40:00.848Z,0
2017-07-01T01:41:02.117Z,0
2017-07-01T01:42:03.385Z,0
2017-07-01T01:43:04.648Z,0
2017-07-01T01:44:05.901Z,0
2017-07-01T01:45:07.272Z,0
2017-07-01T01:46:08.419Z,0
2017-07-01T01:47:09.747Z,0
2017-07-01T01:48:10.999Z,0
2017-07-01T01:49:12.262Z,0
2017-07-01T01:50:13.641Z,0
2017-07-01T01:51:14.789Z,0
2017-07-01T01:52:16.061Z,0
2017-07-01T01:53:17.325Z,0
2017-07-01T01:54:18.596Z,0
2017-07-01T01:55:19.852Z,0
2017-07-01T01:56:21.110Z,0
2017-07-01T01:57:22.382Z,0
2017-07-01T01:58:23.619Z,0
2017-07-01T01:59:24.902Z,0
2017-07-01T02:00:26.205Z,0
2017-07-01T02:01:27.432Z,0
2017-07-01T02:02:28.704Z,0
2017-07-01T02:03:29.952Z,0
2017-07-01T02:04:31.243Z,0
2017-07-01T02:05:32.492Z,0
2017-07-01T02:06:33.801Z,0
2017-07-01T02:07:35.062Z,0
2017-07-01T02:08:36.302Z,0
2017-07-01T02:09:37.653Z,0
2017-07-01T02:10:38.912Z,0
2017-07-01T02:11:40.145Z,0
2017-07-01T02:12:41.449Z,0
2017-07-01T02:13:42.715Z,0
2017-07-01T02:14:43.983Z,0
2017-07-01T02:15:45.316Z,0
2017-07-01T02:16:46.546Z,0
2017-07-01T02:17:47.919Z,0
2017-07-01T02:18:49.222Z,0
2017-07-01T02:19:50.450Z,0
2017-07-01T02:20:51.736Z,0
2017-07-01T02:21:53.011Z,0
2017-07-01T02:22:54.362Z,0
2017-07-01T02:23:55.609Z,0
2017-07-01T02:24:56.850Z,0
2017-07-01T02:25:58.104Z,0
2017-07-01T02:26:59.366Z,0
2017-07-01T02:28:00.651Z,0
2017-07-01T02:29:01.961Z,0
2017-07-01T02:30:03.262Z,0
2017-07-01T02:31:04.525Z,0
2017-07-01T02:32:05.825Z,0
2017-07-01T02:33:07.071Z,0
2017-07-01T02:34:08.437Z,0
2017-07-01T02:35:09.825Z,0
2017-07-01T02:36:11.091Z,0
2017-07-01T02:37:12.344Z,0
2017-07-01T02:38:13.627Z,0
2017-07-01T02:39:14.874Z,0
2017-07-01T02:40:16.171Z,0
2017-07-01T02:41:17.420Z,0
2017-07-01T02:42:18.669Z,0
2017-07-01T02:43:19.943Z,4
2017-07-01T02:44:21.205Z,4
2017-07-01T02:45:22.458Z,4
2017-07-01T02:46:23.747Z,4
2017-07-01T02:47:25.115Z,0
2017-07-01T02:48:26.374Z,0
2017-07-01T02:49:27.671Z,4
2017-07-01T02:50:28.912Z,4
2017-07-01T02:51:30.181Z,4
2017-07-01T02:52:31.452Z,4
2017-07-01T02:53:32.708Z,4
2017-07-01T02:54:34.028Z,8
2017-07-01T02:55:35.273Z,4
2017-07-01T02:56:36.572Z,8
2017-07-01T02:57:37.844Z,8
2017-07-01T02:58:39.111Z,12
2017-07-01T02:59:40.447Z,12
2017-07-01T03:00:41.718Z,16
2017-07-01T03:01:42.975Z,16
2017-07-01T03:02:44.249Z,20
2017-07-01T03:03:45.489Z,20
2017-07-01T03:04:46.784Z,20
2017-07-01T03:05:48.117Z,24
2017-07-01T03:06:49.420Z,24
2017-07-01T03:07:50.717Z,28
2017-07-01T03:08:51.964Z,28
2017-07-01T03:09:53.312Z,32
2017-07-01T03:10:54.515Z,36
2017-07-01T03:11:55.799Z,36
2017-07-01T03:12:57.033Z,44
2017-07-01T03:13:58.285Z,48
2017-07-01T03:14:59.590Z,48
2017-07-01T03:16:00.791Z,56
2017-07-01T03:17:02.026Z,60
2017-07-01T03:18:03.298Z,64
2017-07-01T03:19:04.558Z,72
2017-07-01T03:20:05.919Z,84
2017-07-01T03:21:07.124Z,96
2017-07-01T03:22:08.434Z,100
2017-07-01T03:23:09.699Z,108
2017-07-01T03:24:10.973Z,116
2017-07-01T03:25:12.271Z,112
2017-07-01T03:26:13.523Z,88
2017-07-01T03:27:14.843Z,76
2017-07-01T03:28:16.094Z,100
2017-07-01T03:29:17.372Z,100
2017-07-01T03:30:18.647Z,88
2017-07-01T03:31:19.896Z,120
2017-07-01T03:32:21.158Z,152
2017-07-01T03:33:22.426Z,168
2017-07-01T03:34:23.720Z,108
2017-07-01T03:35:24.963Z,116
2017-07-01T03:36:26.270Z,188
2017-07-01T03:37:27.563Z,224
2017-07-01T03:38:28.830Z,208
2017-07-01T03:39:30.099Z,140
2017-07-01T03:40:31.314Z,152
2017-07-01T03:41:32.559Z,164
2017-07-01T03:42:33.940Z,216
2017-07-01T03:43:35.233Z,232
2017-07-01T03:44:36.478Z,284
2017-07-01T03:45:37.755Z,324
2017-07-01T03:46:38.980Z,420
2017-07-01T03:47:40.307Z,328
2017-07-01T03:48:41.556Z,364
2017-07-01T03:49:42.859Z,292
2017-07-01T03:50:44.110Z,256
2017-07-01T03:51:45.401Z,264
2017-07-01T03:52:46.650Z,276
2017-07-01T03:53:48.043Z,280
2017-07-01T03:54:49.293Z,296
2017-07-01T03:55:50.533Z,224
2017-07-01T03:56:51.784Z,256
2017-07-01T03:57:53.034Z,348
2017-07-01T03:58:54.307Z,340
2017-07-01T03:59:55.647Z,348
2017-07-01T04:00:56.910Z,284
2017-07-01T04:01:58.162Z,240
2017-07-01T04:02:59.407Z,264
2017-07-01T04:04:00.708Z,260
2017-07-01T04:05:02.030Z,280
2017-07-01T04:06:03.426Z,296
2017-07-01T04:07:04.684Z,352
2017-07-01T04:08:05.953Z,372
2017-07-01T04:09:07.227Z,388
2017-07-01T04:10:08.507Z,372
2017-07-01T04:11:09.870Z,396
2017-07-01T04:12:11.216Z,472
2017-07-01T04:13:12.430Z,424
2017-07-01T04:14:13.686Z,492
2017-07-01T04:15:14.916Z,500
2017-07-01T04:16:16.172Z,632
2017-07-01T04:17:17.589Z,608
2017-07-01T04:18:18.863Z,640
2017-07-01T04:19:20.145Z,588
2017-07-01T04:20:21.372Z,616
2017-07-01T04:21:22.622Z,876
2017-07-01T04:22:23.890Z,816
2017-07-01T04:23:25.262Z,816
2017-07-01T04:24:26.520Z,1020
2017-07-01T04:25:27.781Z,796
2017-07-01T04:26:29.040Z,572
2017-07-01T04:27:30.332Z,560
2017-07-01T04:28:31.640Z,364
2017-07-01T04:29:33.011Z,504
2017-07-01T04:30:34.178Z,584
2017-07-01T04:31:35.575Z,556
2017-07-01T04:32:36.814Z,320
2017-07-01T04:33:38.130Z,280
2017-07-01T04:34:39.390Z,252
2017-07-01T04:35:40.680Z,272
2017-07-01T04:36:41.940Z,236
2017-07-01T04:37:43.173Z,268
2017-07-01T04:38:44.418Z,244
2017-07-01T04:39:45.696Z,252
2017-07-01T04:40:46.938Z,272
2017-07-01T04:41:48.269Z,312
2017-07-01T04:42:49.595Z,380
2017-07-01T04:43:50.882Z,464
2017-07-01T04:44:52.143Z,608
2017-07-01T04:45:53.421Z,496
2017-07-01T04:46:54.675Z,492
2017-07-01T04:47:56.075Z,628
2017-07-01T04:48:57.382Z,620
2017-07-01T04:49:58.600Z,744
2017-07-01T04:50:59.842Z,920
2017-07-01T04:52:01.157Z,1080
2017-07-01T04:53:02.397Z,964
2017-07-01T04:54:03.708Z,772
2017-07-01T04:55:05.015Z,616
2017-07-01T04:56:06.270Z,684
2017-07-01T04:57:07.545Z,632
2017-07-01T04:58:08.808Z,708
2017-07-01T04:59:10.178Z,624
2017-07-01T05:00:11.439Z,648
2017-07-01T05:01:12.699Z,696
2017-07-01T05:02:13.950Z,648
2017-07-01T05:03:15.215Z,728
2017-07-01T05:04:16.475Z,936
2017-07-01T05:05:18.033Z,740
2017-07-01T05:06:19.284Z,720
2017-07-01T05:07:20.528Z,836
2017-07-01T05:08:21.808Z,980
2017-07-01T05:09:23.071Z,1076
2017-07-01T05:10:24.380Z,872
2017-07-01T05:11:25.706Z,944
2017-07-01T05:12:26.976Z,880
2017-07-01T05:13:28.232Z,808
2017-07-01T05:14:29.456Z,792
2017-07-01T05:15:30.763Z,864
2017-07-01T05:16:32.077Z,720
2017-07-01T05:17:33.444Z,588
2017-07-01T05:18:34.703Z,760
2017-07-01T05:19:35.938Z,848
2017-07-01T05:20:37.203Z,660
2017-07-01T05:21:38.544Z,488
2017-07-01T05:22:39.796Z,496
2017-07-01T05:23:41.074Z,840
2017-07-01T05:24:42.317Z,580
2017-07-01T05:25:43.606Z,584
2017-07-01T05:26:44.860Z,1048
2017-07-01T05:27:46.107Z,944
2017-07-01T05:28:47.431Z,632
2017-07-01T05:29:48.665Z,676
2017-07-01T05:30:49.924Z,584
2017-07-01T05:31:51.179Z,604
2017-07-01T05:32:52.443Z,764
2017-07-01T05:33:53.738Z,848
2017-07-01T05:34:55.087Z,852
2017-07-01T05:35:56.284Z,772
2017-07-01T05:36:57.575Z,572
2017-07-01T05:37:58.826Z,520
2017-07-01T05:39:00.042Z,588
2017-07-01T05:40:01.345Z,680
2017-07-01T05:41:02.591Z,572
2017-07-01T05:42:03.853Z,588
2017-07-01T05:43:05.185Z,628
2017-07-01T05:44:06.480Z,604
2017-07-01T05:45:07.781Z,540
2017-07-01T05:46:09.048Z,476
2017-07-01T05:47:10.334Z,604
2017-07-01T05:48:11.587Z,756
2017-07-01T05:49:12.829Z,872
2017-07-01T05:50:14.094Z,972
2017-07-01T05:51:15.381Z,1100
2017-07-01T05:52:16.616Z,1008
2017-07-01T05:53:18.025Z,852
2017-07-01T05:54:19.317Z,788
2017-07-01T05:55:20.557Z,924
2017-07-01T05:56:21.852Z,1000
2017-07-01T05:57:23.130Z,1080
2017-07-01T05:58:24.556Z,1104
2017-07-01T05:59:25.845Z,1980
2017-07-01T06:00:27.125Z,2500
2017-07-01T06:01:28.373Z,2660
2017-07-01T06:02:29.696Z,2260
2017-07-01T06:03:30.943Z,2584
2017-07-01T06:04:32.226Z,3056
2017-07-01T06:05:33.491Z,2788
2017-07-01T06:06:34.739Z,2572
2017-07-01T06:07:35.990Z,2924
2017-07-01T06:08:37.296Z,2860
2017-07-01T06:09:38.567Z,2704
2017-07-01T06:10:39.825Z,2660
2017-07-01T06:11:41.136Z,2388
2017-07-01T06:12:42.594Z,2012
2017-07-01T06:13:43.858Z,2192
2017-07-01T06:14:45.118Z,2444
2017-07-01T06:15:46.396Z,2636
2017-07-01T06:16:47.651Z,2860
2017-07-01T06:17:48.916Z,2884
2017-07-01T06:18:50.168Z,3452
2017-07-01T06:19:51.436Z,4040
2017-07-01T06:20:52.719Z,4312
2017-07-01T06:21:54.041Z,4652
2017-07-01T06:22:55.431Z,5332
2017-07-01T06:23:56.720Z,6156
2017-07-01T06:24:57.963Z,6900
2017-07-01T06:25:59.218Z,7268
2017-07-01T06:27:00.576Z,7508
2017-07-01T06:28:01.888Z,7680
2017-07-01T06:29:03.189Z,7784
2017-07-01T06:30:04.478Z,7648
2017-07-01T06:31:05.793Z,7596
2017-07-01T06:32:07.018Z,7512
2017-07-01T06:33:08.340Z,7184
2017-07-01T06:34:09.594Z,6420
2017-07-01T06:35:10.879Z,6068
2017-07-01T06:36:12.334Z,6032
2017-07-01T06:37:13.712Z,5568
2017-07-01T06:38:14.996Z,4648
2017-07-01T06:39:16.331Z,4232
2017-07-01T06:40:17.609Z,3496
2017-07-01T06:41:18.839Z,3372
2017-07-01T06:42:20.102Z,3404
2017-07-01T06:43:21.742Z,2916
2017-07-01T06:44:22.886Z,3024
2017-07-01T06:45:24.245Z,3948
2017-07-01T06:46:25.482Z,3992
2017-07-01T06:47:26.833Z,4816
2017-07-01T06:48:28.199Z,5180
2017-07-01T06:49:29.473Z,5000
2017-07-01T06:50:30.704Z,4668
2017-07-01T06:51:32.070Z,5048
2017-07-01T06:52:33.335Z,5244
2017-07-01T06:53:34.566Z,5484
2017-07-01T06:54:35.837Z,5948
2017-07-01T06:55:37.090Z,5592
2017-07-01T06:56:38.337Z,5644
2017-07-01T06:57:39.585Z,5688
2017-07-01T06:58:40.825Z,5504
2017-07-01T06:59:42.202Z,5268
2017-07-01T07:00:43.462Z,5684
2017-07-01T07:01:44.749Z,5232
2017-07-01T07:02:46.141Z,4808
2017-07-01T07:03:47.416Z,4144
2017-07-01T07:04:48.686Z,4184
2017-07-01T07:05:49.970Z,4692
2017-07-01T07:06:51.249Z,4572
2017-07-01T07:07:52.524Z,4236
2017-07-01T07:08:53.775Z,4360
2017-07-01T07:09:55.036Z,4448
2017-07-01T07:10:56.354Z,3724
2017-07-01T07:11:57.592Z,4192
2017-07-01T07:12:58.811Z,4200
2017-07-01T07:14:00.063Z,4916
2017-07-01T07:15:01.368Z,4472
2017-07-01T07:16:02.616Z,4080
2017-07-01T07:17:03.901Z,3964
2017-07-01T07:18:05.188Z,3796
2017-07-01T07:19:06.421Z,3948
2017-07-01T07:20:07.732Z,3980
2017-07-01T07:21:08.983Z,4580
2017-07-01T07:22:10.265Z,5280
2017-07-01T07:23:11.523Z,5196
2017-07-01T07:24:12.777Z,4808
2017-07-01T07:25:14.083Z,6148
2017-07-01T07:26:15.390Z,6804
2017-07-01T07:27:16.608Z,6824
2017-07-01T07:28:18.058Z,6748
2017-07-01T07:29:19.346Z,6768
2017-07-01T07:30:20.623Z,6820
2017-07-01T07:31:22.039Z,6800
2017-07-01T07:32:23.285Z,6788
2017-07-01T07:33:24.547Z,6916
2017-07-01T07:34:25.885Z,7088
2017-07-01T07:35:27.118Z,7200
2017-07-01T07:36:28.461Z,7412
2017-07-01T07:37:29.929Z,7592
2017-07-01T07:38:31.197Z,7784
2017-07-01T07:39:32.468Z,7704
2017-07-01T07:40:33.733Z,7800
2017-07-01T07:41:34.992Z,7984
2017-07-01T07:42:36.351Z,8168
2017-07-01T07:43:37.664Z,8492
2017-07-01T07:44:38.921Z,8528
2017-07-01T07:45:40.213Z,7716
2017-07-01T07:46:41.574Z,7196
2017-07-01T07:47:42.844Z,8020
2017-07-01T07:48:44.093Z,8000
2017-07-01T07:49:45.385Z,7768
2017-07-01T07:50:46.799Z,7344
2017-07-01T07:51:48.222Z,7852
2017-07-01T07:52:49.455Z,8096
2017-07-01T07:53:50.704Z,8536
2017-07-01T07:54:52.004Z,9580
2017-07-01T07:55:53.256Z,9980
2017-07-01T07:56:54.632Z,9364
2017-07-01T07:57:55.898Z,11008
2017-07-01T07:58:57.251Z,11928
2017-07-01T07:59:58.502Z,12012
2017-07-01T08:00:59.773Z,11800
2017-07-01T08:02:01.061Z,10956
2017-07-01T08:03:02.287Z,10568
2017-07-01T08:04:03.550Z,10332
2017-07-01T08:05:04.916Z,10636
2017-07-01T08:06:06.089Z,11084
2017-07-01T08:07:07.347Z,11536
2017-07-01T08:08:08.831Z,11680
2017-07-01T08:09:10.175Z,11700
2017-07-01T08:10:11.522Z,11668
2017-07-01T08:11:12.835Z,11496
2017-07-01T08:12:14.070Z,11868
2017-07-01T08:13:15.378Z,11256
2017-07-01T08:14:16.631Z,10668
2017-07-01T08:15:17.956Z,14820
2017-07-01T08:16:19.310Z,17120
2017-07-01T08:17:20.588Z,17568
2017-07-01T08:18:21.850Z,15816
2017-07-01T08:19:23.132Z,12424
2017-07-01T08:20:24.410Z,11712
2017-07-01T08:21:25.765Z,10820
2017-07-01T08:22:27.022Z,12176
2017-07-01T08:23:28.293Z,12248
2017-07-01T08:24:29.549Z,11108
2017-07-01T08:25:30.867Z,8372
2017-07-01T08:26:32.173Z,8404
2017-07-01T08:27:33.588Z,11120
2017-07-01T08:28:34.889Z,13548
2017-07-01T08:29:36.150Z,12608
2017-07-01T08:30:37.435Z,8800
2017-07-01T08:31:38.860Z,9056
2017-07-01T08:32:40.200Z,7296
2017-07-01T08:33:41.482Z,6528
2017-07-01T08:34:42.743Z,7752
2017-07-01T08:35:43.986Z,8524
2017-07-01T08:36:45.264Z,9212
2017-07-01T08:37:46.526Z,10088
2017-07-01T08:38:48.031Z,8308
2017-07-01T08:39:49.313Z,6416
2017-07-01T08:40:50.605Z,6212
2017-07-01T08:41:51.919Z,4972
2017-07-01T08:42:53.162Z,5168
2017-07-01T08:43:54.488Z,4672
2017-07-01T08:44:55.741Z,4928
2017-07-01T08:45:57.002Z,4976
2017-07-01T08:46:58.287Z,5952
2017-07-01T08:47:59.555Z,8216
2017-07-01T08:49:00.845Z,8280
2017-07-01T08:50:02.156Z,7712
2017-07-01T08:51:03.596Z,6792
2017-07-01T08:52:04.838Z,6144
2017-07-01T08:53:06.073Z,6776
2017-07-01T08:54:07.362Z,7604
2017-07-01T08:55:08.673Z,8152
2017-07-01T08:56:09.920Z,8228
2017-07-01T08:57:11.219Z,8556
2017-07-01T08:58:12.486Z,9404
2017-07-01T08:59:13.924Z,8284
2017-07-01T09:00:15.066Z,6100
2017-07-01T09:01:16.387Z,5692
2017-07-01T09:02:17.774Z,4032
2017-07-01T09:03:19.086Z,3612
2017-07-01T09:04:20.341Z,4236
2017-07-01T09:05:21.666Z,4700
2017-07-01T09:06:22.879Z,4860
2017-07-01T09:07:24.255Z,5096
2017-07-01T09:08:25.601Z,5172
2017-07-01T09:09:26.886Z,5968
2017-07-01T09:10:28.112Z,5952
2017-07-01T09:11:29.451Z,5504
2017-07-01T09:12:30.811Z,5108
2017-07-01T09:13:32.152Z,5048
2017-07-01T09:14:33.422Z,5268
2017-07-01T09:15:34.696Z,5396
2017-07-01T09:16:35.963Z,5160
2017-07-01T09:17:37.545Z,4848
2017-07-01T09:18:38.691Z,4544
2017-07-01T09:19:39.950Z,5332
2017-07-01T09:20:41.184Z,6840
2017-07-01T09:21:42.458Z,7580
2017-07-01T09:22:43.701Z,5796
2017-07-01T09:23:45.025Z,5332
2017-07-01T09:24:46.363Z,6456
2017-07-01T09:25:47.664Z,7776
2017-07-01T09:26:48.930Z,9548
2017-07-01T09:27:50.200Z,9728
2017-07-01T09:28:51.457Z,9628
2017-07-01T09:29:52.739Z,9356
2017-07-01T09:30:54.043Z,9432
2017-07-01T09:31:55.318Z,9256
2017-07-01T09:32:56.615Z,9772
2017-07-01T09:33:57.843Z,9708
2017-07-01T09:34:59.119Z,9552
2017-07-01T09:36:00.394Z,8116
2017-07-01T09:37:01.653Z,8708
2017-07-01T09:38:02.900Z,8544
2017-07-01T09:39:04.162Z,9204
2017-07-01T09:40:05.489Z,9316
2017-07-01T09:41:06.742Z,7340
2017-07-01T09:42:08.031Z,7272
2017-07-01T09:43:09.361Z,9748
2017-07-01T09:44:10.615Z,8352
2017-07-01T09:45:11.914Z,7068
2017-07-01T09:46:13.167Z,4528
2017-07-01T09:47:14.407Z,7684
2017-07-01T09:48:15.697Z,8800
2017-07-01T09:49:16.907Z,8484
2017-07-01T09:50:18.155Z,8512
2017-07-01T09:51:19.392Z,7972
2017-07-01T09:52:20.661Z,5852
2017-07-01T09:53:21.995Z,8568
2017-07-01T09:54:23.239Z,9084
2017-07-01T09:55:24.492Z,11668
2017-07-01T09:56:25.797Z,13312
2017-07-01T09:57:27.039Z,14468
2017-07-01T09:58:28.319Z,18496
2017-07-01T09:59:29.594Z,17568
2017-07-01T10:00:30.857Z,21888
2017-07-01T10:01:32.159Z,21568
2017-07-01T10:02:33.413Z,19392
2017-07-01T10:03:34.681Z,19584
2017-07-01T10:04:36.068Z,19776
2017-07-01T10:05:37.335Z,18432
2017-07-01T10:06:38.698Z,17952
2017-07-01T10:07:39.957Z,16076
2017-07-01T10:08:41.179Z,16052
2017-07-01T10:09:42.493Z,16024
2017-07-01T10:10:43.865Z,15720
2017-07-01T10:11:45.267Z,17760
2017-07-01T10:12:46.520Z,15012
2017-07-01T10:13:47.768Z,13780
2017-07-01T10:14:49.012Z,16592
2017-07-01T10:15:50.269Z,18400
2017-07-01T10:16:51.529Z,19776
2017-07-01T10:17:52.774Z,15764
2017-07-01T10:18:54.053Z,14504
2017-07-01T10:19:55.323Z,14408
2017-07-01T10:20:56.550Z,15260
2017-07-01T10:21:57.870Z,13140
2017-07-01T10:22:59.208Z,11320
2017-07-01T10:24:00.562Z,13608
2017-07-01T10:25:01.856Z,13364
2017-07-01T10:26:03.111Z,10240
2017-07-01T10:27:04.367Z,8660
2017-07-01T10:28:05.646Z,6632
2017-07-01T10:29:06.912Z,6636
2017-07-01T10:30:08.171Z,6304
2017-07-01T10:31:09.437Z,7484
2017-07-01T10:32:10.659Z,7336
2017-07-01T10:33:11.996Z,6888
2017-07-01T10:34:13.187Z,7136
2017-07-01T10:35:14.486Z,6528
2017-07-01T10:36:15.833Z,5308
2017-07-01T10:37:17.122Z,5000
2017-07-01T10:38:18.389Z,5916
2017-07-01T10:39:19.744Z,5432
2017-07-01T10:40:21.036Z,6820
2017-07-01T10:41:22.298Z,7324
2017-07-01T10:42:23.637Z,6800
2017-07-01T10:43:24.928Z,6344
2017-07-01T10:44:26.177Z,5884
2017-07-01T10:45:27.424Z,5340
2017-07-01T10:46:28.697Z,4404
2017-07-01T10:47:29.929Z,4340
2017-07-01T10:48:31.197Z,4424
2017-07-01T10:49:32.458Z,4848
2017-07-01T10:50:33.713Z,4460
2017-07-01T10:51:34.942Z,4900
2017-07-01T10:52:36.215Z,5868
2017-07-01T10:53:37.638Z,5188
2017-07-01T10:54:38.856Z,5184
2017-07-01T10:55:40.108Z,6008
2017-07-01T10:56:41.381Z,6260
2017-07-01T10:57:42.682Z,5588
2017-07-01T10:58:44.043Z,5728
2017-07-01T10:59:45.360Z,6388
2017-07-01T11:00:46.623Z,7108
2017-07-01T11:01:47.885Z,9284
2017-07-01T11:02:49.153Z,10420
2017-07-01T11:03:50.427Z,8808
2017-07-01T11:04:51.866Z,6952
2017-07-01T11:05:53.106Z,8488
2017-07-01T11:06:54.340Z,8080
2017-07-01T11:07:55.606Z,6976
2017-07-01T11:08:56.909Z,8324
2017-07-01T11:09:58.223Z,9084
2017-07-01T11:10:59.539Z,8700
2017-07-01T11:12:00.807Z,8108
2017-07-01T11:13:02.064Z,6628
2017-07-01T11:14:03.302Z,6624
2017-07-01T11:15:04.607Z,6708
2017-07-01T11:16:05.991Z,8364
2017-07-01T11:17:07.246Z,9304
2017-07-01T11:18:08.479Z,7768
2017-07-01T11:19:09.808Z,8596
2017-07-01T11:20:11.109Z,9080
2017-07-01T11:21:12.418Z,8036
2017-07-01T11:22:13.731Z,9560
2017-07-01T11:23:14.991Z,12144
2017-07-01T11:24:16.241Z,12688
2017-07-01T11:25:17.552Z,11916
2017-07-01T11:26:18.863Z,12704
2017-07-01T11:27:20.178Z,16616
2017-07-01T11:28:21.413Z,18752
2017-07-01T11:29:22.686Z,20544
2017-07-01T11:30:23.994Z,20704
2017-07-01T11:31:25.238Z,19808
2017-07-01T11:32:26.524Z,18080
2017-07-01T11:33:27.786Z,16392
2017-07-01T11:34:29.063Z,15784
2017-07-01T11:35:30.385Z,13804
2017-07-01T11:36:31.630Z,11732
2017-07-01T11:37:32.933Z,10204
2017-07-01T11:38:34.230Z,9272
2017-07-01T11:39:35.484Z,7464
2017-07-01T11:40:36.747Z,6636
2017-07-01T11:41:38.011Z,7460
2017-07-01T11:42:39.306Z,7652
2017-07-01T11:43:40.652Z,7520
2017-07-01T11:44:41.925Z,6800
2017-07-01T11:45:43.257Z,5688
2017-07-01T11:46:44.524Z,5312
2017-07-01T11:47:45.809Z,5724
2017-07-01T11:48:47.150Z,4880
2017-07-01T11:49:48.411Z,4540
2017-07-01T11:50:49.754Z,4804
2017-07-01T11:51:51.014Z,5440
2017-07-01T11:52:52.303Z,7016
2017-07-01T11:53:53.566Z,7716
2017-07-01T11:54:54.846Z,8640
2017-07-01T11:55:56.241Z,10080
2017-07-01T11:56:57.507Z,10724
2017-07-01T11:57:58.755Z,11452
2017-07-01T11:59:00.042Z,12016
2017-07-01T12:00:01.353Z,12912
2017-07-01T12:01:02.570Z,12824
2017-07-01T12:02:03.852Z,11968
2017-07-01T12:03:05.249Z,11708
2017-07-01T12:04:06.481Z,12012
2017-07-01T12:05:07.760Z,13112
2017-07-01T12:06:09.016Z,13928
2017-07-01T12:07:10.314Z,12728
2017-07-01T12:08:11.569Z,11192
2017-07-01T12:09:12.901Z,10180
2017-07-01T12:10:14.155Z,9420
2017-07-01T12:11:15.430Z,8720
2017-07-01T12:12:16.709Z,7908
2017-07-01T12:13:18.050Z,7432
2017-07-01T12:14:19.345Z,6900
2017-07-01T12:15:20.658Z,6368
2017-07-01T12:16:21.997Z,6004
2017-07-01T12:17:23.259Z,5952
2017-07-01T12:18:24.508Z,5960
2017-07-01T12:19:26.022Z,5604
2017-07-01T12:20:27.278Z,4556
2017-07-01T12:21:28.571Z,4352
2017-07-01T12:22:29.803Z,4416
2017-07-01T12:23:31.053Z,4276
2017-07-01T12:24:32.358Z,4064
2017-07-01T12:25:33.603Z,4152
2017-07-01T12:26:34.870Z,4356
2017-07-01T12:27:36.118Z,4404
2017-07-01T12:28:37.390Z,3828
2017-07-01T12:29:38.681Z,3280
2017-07-01T12:30:40.070Z,3300
2017-07-01T12:31:41.341Z,3012
2017-07-01T12:32:42.582Z,3084
2017-07-01T12:33:43.887Z,3152
2017-07-01T12:34:45.140Z,2900
2017-07-01T12:35:46.415Z,2716
2017-07-01T12:36:47.672Z,2424
2017-07-01T12:37:48.915Z,1944
2017-07-01T12:38:50.152Z,1748
2017-07-01T12:39:51.411Z,1612
2017-07-01T12:40:52.651Z,1492
2017-07-01T12:41:53.928Z,1400
2017-07-01T12:42:55.180Z,1296
2017-07-01T12:43:56.453Z,1200
2017-07-01T12:44:57.798Z,1172
2017-07-01T12:45:59.043Z,1108
2017-07-01T12:47:00.312Z,1036
2017-07-01T12:48:01.569Z,1116
2017-07-01T12:49:02.854Z,1716
2017-07-01T12:50:04.209Z,2628
2017-07-01T12:51:05.527Z,3272
2017-07-01T12:52:06.826Z,3668
2017-07-01T12:53:08.118Z,3924
2017-07-01T12:54:09.385Z,3964
2017-07-01T12:55:10.674Z,4112
2017-07-01T12:56:11.937Z,4328
2017-07-01T12:57:13.175Z,4492
2017-07-01T12:58:14.472Z,4916
2017-07-01T12:59:15.744Z,5584
2017-07-01T13:00:17.031Z,6264
2017-07-01T13:01:18.342Z,6872
2017-07-01T13:02:19.608Z,7400
2017-07-01T13:03:20.882Z,7984
2017-07-01T13:04:22.191Z,8848
2017-07-01T13:05:23.455Z,10052
2017-07-01T13:06:24.736Z,11312
2017-07-01T13:07:26.029Z,12284
2017-07-01T13:08:27.342Z,12936
2017-07-01T13:09:28.625Z,13512
2017-07-01T13:10:29.939Z,13856
2017-07-01T13:11:31.208Z,13220
2017-07-01T13:12:32.448Z,11760
2017-07-01T13:13:33.729Z,10220
2017-07-01T13:14:34.966Z,8804
2017-07-01T13:15:36.297Z,7460
2017-07-01T13:16:37.548Z,6384
2017-07-01T13:17:38.799Z,5500
2017-07-01T13:18:40.095Z,4316
2017-07-01T13:19:41.380Z,3660
2017-07-01T13:20:42.679Z,3224
2017-07-01T13:21:43.923Z,3716
2017-07-01T13:22:45.220Z,3848
2017-07-01T13:23:46.545Z,3564
2017-07-01T13:24:47.763Z,3160
2017-07-01T13:25:49.120Z,2704
2017-07-01T13:26:50.464Z,2820
2017-07-01T13:27:51.737Z,3088
2017-07-01T13:28:53.032Z,4552
2017-07-01T13:29:54.309Z,5996
2017-07-01T13:30:55.544Z,6576
2017-07-01T13:31:56.817Z,7268
2017-07-01T13:32:58.159Z,8204
2017-07-01T13:33:59.381Z,9032
2017-07-01T13:35:00.658Z,9504
2017-07-01T13:36:01.913Z,9448
2017-07-01T13:37:03.180Z,9020
2017-07-01T13:38:04.589Z,8616
2017-07-01T13:39:05.905Z,8448
2017-07-01T13:40:07.151Z,8552
2017-07-01T13:41:08.404Z,8500
2017-07-01T13:42:09.731Z,7928
2017-07-01T13:43:11.046Z,7104
2017-07-01T13:44:12.432Z,6744
2017-07-01T13:45:13.744Z,6452
2017-07-01T13:46:15.023Z,5836
2017-07-01T13:47:16.294Z,5296
2017-07-01T13:48:17.765Z,4436
2017-07-01T13:49:18.941Z,3624
2017-07-01T13:50:20.258Z,3520
2017-07-01T13:51:21.519Z,3516
2017-07-01T13:52:22.792Z,3424
2017-07-01T13:53:24.108Z,3340
2017-07-01T13:54:25.405Z,3072
2017-07-01T13:55:26.762Z,2640
2017-07-01T13:56:28.011Z,2468